sensor_id;sensor_type;location;lat;lon;timestamp;P1;durP1;ratioP1;P2;durP2;ratioP2
8861;SDS011;4799;50.996;4.754;2022-12-13T00:01:22;44.57;;;35.47;;
8861;SDS011;4799;50.996;4.754;2022-12-13T00:03:51;46.00;;;37.63;;
8861;SDS011;4799;50.996;4.754;2022-12-13T00:06:18;40.77;;;34.23;;
8861;SDS011;4799;50.996;4.754;2022-12-13T00:08:44;44.50;;;37.27;;
8861;SDS011;4799;50.996;4.754;2022-12-13T00:11:10;46.47;;;35.57;;
8861;SDS011;4799;50.996;4.754;2022-12-13T00:13:38;46.10;;;35.73;;
8861;SDS011;4799;50.996;4.754;2022-12-13T00:16:06;42.70;;;33.77;;
8861;SDS011;4799;50.996;4.754;2022-12-13T00:18:35;46.30;;;37.40;;
8861;SDS011;4799;50.996;4.754;2022-12-13T00:21:04;45.83;;;37.47;;
8861;SDS011;4799;50.996;4.754;2022-12-13T00:23:31;52.53;;;40.33;;
8861;SDS011;4799;50.996;4.754;2022-12-13T00:26:04;49.10;;;39.43;;
8861;SDS011;4799;50.996;4.754;2022-12-13T00:28:41;45.57;;;36.50;;
8861;SDS011;4799;50.996;4.754;2022-12-13T00:31:07;45.93;;;36.00;;
8861;SDS011;4799;50.996;4.754;2022-12-13T00:33:33;46.03;;;36.43;;
8861;SDS011;4799;50.996;4.754;2022-12-13T00:36:02;44.77;;;34.30;;
8861;SDS011;4799;50.996;4.754;2022-12-13T00:38:29;43.47;;;34.50;;
8861;SDS011;4799;50.996;4.754;2022-12-13T00:40:54;39.83;;;33.17;;
8861;SDS011;4799;50.996;4.754;2022-12-13T00:43:20;43.20;;;34.20;;
8861;SDS011;4799;50.996;4.754;2022-12-13T00:45:46;41.73;;;33.03;;
8861;SDS011;4799;50.996;4.754;2022-12-13T00:48:11;42.77;;;35.20;;
8861;SDS011;4799;50.996;4.754;2022-12-13T00:50:37;43.37;;;35.03;;
8861;SDS011;4799;50.996;4.754;2022-12-13T00:53:04;45.07;;;35.27;;
8861;SDS011;4799;50.996;4.754;2022-12-13T00:55:30;44.23;;;34.93;;
8861;SDS011;4799;50.996;4.754;2022-12-13T00:57:56;42.60;;;33.67;;
8861;SDS011;4799;50.996;4.754;2022-12-13T01:00:22;49.77;;;35.20;;
8861;SDS011;4799;50.996;4.754;2022-12-13T01:02:49;43.67;;;34.17;;
8861;SDS011;4799;50.996;4.754;2022-12-13T01:05:17;43.53;;;33.37;;
8861;SDS011;4799;50.996;4.754;2022-12-13T01:07:42;43.20;;;34.37;;
8861;SDS011;4799;50.996;4.754;2022-12-13T01:10:09;41.40;;;33.63;;
8861;SDS011;4799;50.996;4.754;2022-12-13T01:12:37;45.00;;;34.80;;
8861;SDS011;4799;50.996;4.754;2022-12-13T01:15:04;42.90;;;34.07;;
8861;SDS011;4799;50.996;4.754;2022-12-13T01:17:32;42.40;;;33.03;;
8861;SDS011;4799;50.996;4.754;2022-12-13T01:19:59;41.33;;;32.60;;
8861;SDS011;4799;50.996;4.754;2022-12-13T01:22:25;41.37;;;32.87;;
8861;SDS011;4799;50.996;4.754;2022-12-13T01:24:51;43.20;;;32.27;;
8861;SDS011;4799;50.996;4.754;2022-12-13T01:27:16;43.23;;;32.63;;
8861;SDS011;4799;50.996;4.754;2022-12-13T01:29:42;39.80;;;33.13;;
8861;SDS011;4799;50.996;4.754;2022-12-13T01:32:08;41.40;;;32.10;;
8861;SDS011;4799;50.996;4.754;2022-12-13T01:34:33;41.77;;;33.10;;
8861;SDS011;4799;50.996;4.754;2022-12-13T01:36:59;38.87;;;33.10;;
8861;SDS011;4799;50.996;4.754;2022-12-13T01:39:25;40.43;;;32.50;;
8861;SDS011;4799;50.996;4.754;2022-12-13T01:41:52;37.30;;;30.63;;
8861;SDS011;4799;50.996;4.754;2022-12-13T01:47:39;40.30;;;33.03;;
8861;SDS011;4799;50.996;4.754;2022-12-13T01:50:22;38.10;;;31.30;;
8861;SDS011;4799;50.996;4.754;2022-12-13T01:52:52;37.53;;;30.10;;
8861;SDS011;4799;50.996;4.754;2022-12-13T01:55:20;36.23;;;29.33;;
8861;SDS011;4799;50.996;4.754;2022-12-13T01:57:49;36.20;;;28.50;;
8861;SDS011;4799;50.996;4.754;2022-12-13T02:00:17;36.47;;;28.57;;
8861;SDS011;4799;50.996;4.754;2022-12-13T02:02:43;36.93;;;29.43;;
8861;SDS011;4799;50.996;4.754;2022-12-13T02:05:12;36.27;;;29.63;;
8861;SDS011;4799;50.996;4.754;2022-12-13T02:07:45;38.80;;;29.47;;
8861;SDS011;4799;50.996;4.754;2022-12-13T02:10:12;36.43;;;29.30;;
8861;SDS011;4799;50.996;4.754;2022-12-13T02:12:38;36.70;;;29.23;;
8861;SDS011;4799;50.996;4.754;2022-12-13T02:15:06;36.40;;;29.43;;
8861;SDS011;4799;50.996;4.754;2022-12-13T02:23:05;34.13;;;28.30;;
8861;SDS011;4799;50.996;4.754;2022-12-13T02:28:32;32.83;;;27.33;;
8861;SDS011;4799;50.996;4.754;2022-12-13T02:31:27;36.30;;;29.47;;
8861;SDS011;4799;50.996;4.754;2022-12-13T02:44:12;36.47;;;28.20;;
8861;SDS011;4799;50.996;4.754;2022-12-13T02:47:02;37.87;;;29.27;;
8861;SDS011;4799;50.996;4.754;2022-12-13T02:49:31;36.47;;;28.37;;
8861;SDS011;4799;50.996;4.754;2022-12-13T02:52:02;35.40;;;28.00;;
8861;SDS011;4799;50.996;4.754;2022-12-13T02:54:31;36.70;;;28.10;;
8861;SDS011;4799;50.996;4.754;2022-12-13T02:56:58;36.23;;;28.60;;
8861;SDS011;4799;50.996;4.754;2022-12-13T02:59:29;33.57;;;27.13;;
8861;SDS011;4799;50.996;4.754;2022-12-13T03:02:03;32.53;;;26.97;;
8861;SDS011;4799;50.996;4.754;2022-12-13T03:05:05;38.00;;;29.13;;
8861;SDS011;4799;50.996;4.754;2022-12-13T03:08:06;34.97;;;26.47;;
8861;SDS011;4799;50.996;4.754;2022-12-13T03:11:00;36.50;;;27.37;;
8861;SDS011;4799;50.996;4.754;2022-12-13T03:19:01;34.23;;;27.20;;
8861;SDS011;4799;50.996;4.754;2022-12-13T03:21:36;33.70;;;26.70;;
8861;SDS011;4799;50.996;4.754;2022-12-13T03:24:10;31.90;;;27.47;;
8861;SDS011;4799;50.996;4.754;2022-12-13T03:26:36;31.27;;;26.13;;
8861;SDS011;4799;50.996;4.754;2022-12-13T03:29:04;33.13;;;27.43;;
8861;SDS011;4799;50.996;4.754;2022-12-13T03:31:30;33.93;;;26.40;;
8861;SDS011;4799;50.996;4.754;2022-12-13T03:33:56;33.37;;;27.43;;
8861;SDS011;4799;50.996;4.754;2022-12-13T03:36:21;37.07;;;29.43;;
8861;SDS011;4799;50.996;4.754;2022-12-13T03:38:48;39.47;;;28.83;;
8861;SDS011;4799;50.996;4.754;2022-12-13T03:41:16;33.93;;;28.03;;
8861;SDS011;4799;50.996;4.754;2022-12-13T03:43:44;36.10;;;28.87;;
8861;SDS011;4799;50.996;4.754;2022-12-13T03:46:10;33.93;;;27.93;;
8861;SDS011;4799;50.996;4.754;2022-12-13T03:48:36;35.17;;;28.20;;
8861;SDS011;4799;50.996;4.754;2022-12-13T03:51:02;32.83;;;28.57;;
8861;SDS011;4799;50.996;4.754;2022-12-13T03:53:28;32.70;;;26.53;;
8861;SDS011;4799;50.996;4.754;2022-12-13T03:55:55;33.37;;;27.00;;
8861;SDS011;4799;50.996;4.754;2022-12-13T03:58:20;33.73;;;26.47;;
8861;SDS011;4799;50.996;4.754;2022-12-13T04:00:47;33.43;;;25.70;;
8861;SDS011;4799;50.996;4.754;2022-12-13T04:03:12;33.57;;;27.23;;
8861;SDS011;4799;50.996;4.754;2022-12-13T04:05:39;36.50;;;27.70;;
8861;SDS011;4799;50.996;4.754;2022-12-13T04:08:05;31.90;;;26.30;;
8861;SDS011;4799;50.996;4.754;2022-12-13T04:10:31;33.80;;;27.23;;
8861;SDS011;4799;50.996;4.754;2022-12-13T04:12:57;31.03;;;26.03;;
8861;SDS011;4799;50.996;4.754;2022-12-13T04:15:41;33.17;;;28.07;;
8861;SDS011;4799;50.996;4.754;2022-12-13T04:18:22;32.53;;;25.40;;
8861;SDS011;4799;50.996;4.754;2022-12-13T04:20:47;31.20;;;24.53;;
8861;SDS011;4799;50.996;4.754;2022-12-13T04:23:13;31.03;;;24.67;;
8861;SDS011;4799;50.996;4.754;2022-12-13T04:25:39;32.40;;;27.27;;
8861;SDS011;4799;50.996;4.754;2022-12-13T04:28:06;36.00;;;28.57;;
8861;SDS011;4799;50.996;4.754;2022-12-13T04:30:32;32.50;;;25.77;;
8861;SDS011;4799;50.996;4.754;2022-12-13T04:32:59;33.47;;;26.93;;
8861;SDS011;4799;50.996;4.754;2022-12-13T04:35:25;32.43;;;26.33;;
8861;SDS011;4799;50.996;4.754;2022-12-13T04:37:51;33.20;;;24.93;;
8861;SDS011;4799;50.996;4.754;2022-12-13T04:40:17;31.57;;;25.43;;
8861;SDS011;4799;50.996;4.754;2022-12-13T04:42:43;33.87;;;25.47;;
8861;SDS011;4799;50.996;4.754;2022-12-13T04:45:11;31.30;;;24.77;;
8861;SDS011;4799;50.996;4.754;2022-12-13T04:47:40;30.10;;;24.77;;
8861;SDS011;4799;50.996;4.754;2022-12-13T04:50:06;34.57;;;26.20;;
8861;SDS011;4799;50.996;4.754;2022-12-13T04:52:32;33.73;;;26.53;;
8861;SDS011;4799;50.996;4.754;2022-12-13T04:54:57;28.80;;;23.93;;
8861;SDS011;4799;50.996;4.754;2022-12-13T04:57:23;31.60;;;24.70;;
8861;SDS011;4799;50.996;4.754;2022-12-13T04:59:49;27.20;;;23.87;;
8861;SDS011;4799;50.996;4.754;2022-12-13T05:02:15;32.10;;;24.20;;
8861;SDS011;4799;50.996;4.754;2022-12-13T05:04:40;30.63;;;25.20;;
8861;SDS011;4799;50.996;4.754;2022-12-13T05:07:06;29.73;;;24.63;;
8861;SDS011;4799;50.996;4.754;2022-12-13T05:09:32;29.40;;;23.10;;
8861;SDS011;4799;50.996;4.754;2022-12-13T05:11:57;30.07;;;24.43;;
8861;SDS011;4799;50.996;4.754;2022-12-13T05:14:23;31.63;;;24.03;;
8861;SDS011;4799;50.996;4.754;2022-12-13T05:16:49;29.20;;;24.03;;
8861;SDS011;4799;50.996;4.754;2022-12-13T05:19:15;30.07;;;25.37;;
8861;SDS011;4799;50.996;4.754;2022-12-13T05:21:40;29.10;;;24.73;;
8861;SDS011;4799;50.996;4.754;2022-12-13T05:24:06;29.40;;;24.70;;
8861;SDS011;4799;50.996;4.754;2022-12-13T05:26:32;31.47;;;25.40;;
8861;SDS011;4799;50.996;4.754;2022-12-13T05:28:58;31.93;;;26.20;;
8861;SDS011;4799;50.996;4.754;2022-12-13T05:31:24;28.77;;;24.17;;
8861;SDS011;4799;50.996;4.754;2022-12-13T05:33:50;29.50;;;23.73;;
8861;SDS011;4799;50.996;4.754;2022-12-13T05:36:16;29.13;;;24.47;;
8861;SDS011;4799;50.996;4.754;2022-12-13T05:38:42;29.03;;;24.30;;
8861;SDS011;4799;50.996;4.754;2022-12-13T05:41:09;30.47;;;24.87;;
8861;SDS011;4799;50.996;4.754;2022-12-13T05:43:40;28.40;;;23.40;;
8861;SDS011;4799;50.996;4.754;2022-12-13T05:46:06;29.20;;;23.43;;
8861;SDS011;4799;50.996;4.754;2022-12-13T05:48:31;30.13;;;24.13;;
8861;SDS011;4799;50.996;4.754;2022-12-13T05:50:57;29.67;;;24.43;;
8861;SDS011;4799;50.996;4.754;2022-12-13T05:53:23;31.63;;;24.90;;
8861;SDS011;4799;50.996;4.754;2022-12-13T05:55:49;28.60;;;23.73;;
8861;SDS011;4799;50.996;4.754;2022-12-13T05:58:14;29.00;;;23.97;;
8861;SDS011;4799;50.996;4.754;2022-12-13T06:00:41;29.63;;;24.77;;
8861;SDS011;4799;50.996;4.754;2022-12-13T06:03:07;29.60;;;24.13;;
8861;SDS011;4799;50.996;4.754;2022-12-13T06:05:33;29.90;;;24.40;;
8861;SDS011;4799;50.996;4.754;2022-12-13T06:07:59;29.53;;;23.27;;
8861;SDS011;4799;50.996;4.754;2022-12-13T06:10:25;30.50;;;25.43;;
8861;SDS011;4799;50.996;4.754;2022-12-13T06:12:52;31.13;;;24.60;;
8861;SDS011;4799;50.996;4.754;2022-12-13T06:15:18;32.47;;;26.67;;
8861;SDS011;4799;50.996;4.754;2022-12-13T06:17:44;29.70;;;25.23;;
8861;SDS011;4799;50.996;4.754;2022-12-13T06:20:10;30.80;;;24.27;;
8861;SDS011;4799;50.996;4.754;2022-12-13T06:22:36;31.53;;;26.53;;
8861;SDS011;4799;50.996;4.754;2022-12-13T06:25:02;31.00;;;26.73;;
8861;SDS011;4799;50.996;4.754;2022-12-13T06:27:28;29.90;;;24.23;;
8861;SDS011;4799;50.996;4.754;2022-12-13T06:29:53;30.57;;;25.33;;
8861;SDS011;4799;50.996;4.754;2022-12-13T06:32:19;30.77;;;24.57;;
8861;SDS011;4799;50.996;4.754;2022-12-13T06:34:45;33.20;;;25.97;;
8861;SDS011;4799;50.996;4.754;2022-12-13T06:37:11;30.17;;;24.50;;
8861;SDS011;4799;50.996;4.754;2022-12-13T06:39:38;31.07;;;24.93;;
8861;SDS011;4799;50.996;4.754;2022-12-13T06:42:05;30.87;;;25.27;;
8861;SDS011;4799;50.996;4.754;2022-12-13T06:44:32;29.67;;;25.03;;
8861;SDS011;4799;50.996;4.754;2022-12-13T06:46:59;27.63;;;23.80;;
8861;SDS011;4799;50.996;4.754;2022-12-13T06:49:25;33.13;;;24.70;;
8861;SDS011;4799;50.996;4.754;2022-12-13T06:51:51;33.30;;;26.10;;
8861;SDS011;4799;50.996;4.754;2022-12-13T06:54:18;31.97;;;25.20;;
8861;SDS011;4799;50.996;4.754;2022-12-13T06:56:44;31.37;;;25.17;;
8861;SDS011;4799;50.996;4.754;2022-12-13T06:59:10;30.00;;;24.07;;
8861;SDS011;4799;50.996;4.754;2022-12-13T07:01:36;32.40;;;25.50;;
8861;SDS011;4799;50.996;4.754;2022-12-13T07:04:02;30.07;;;24.87;;
8861;SDS011;4799;50.996;4.754;2022-12-13T07:06:28;29.50;;;25.50;;
8861;SDS011;4799;50.996;4.754;2022-12-13T07:08:55;28.93;;;23.60;;
8861;SDS011;4799;50.996;4.754;2022-12-13T07:11:29;29.53;;;24.87;;
8861;SDS011;4799;50.996;4.754;2022-12-13T07:14:00;31.83;;;25.97;;
8861;SDS011;4799;50.996;4.754;2022-12-13T07:16:26;33.27;;;25.57;;
8861;SDS011;4799;50.996;4.754;2022-12-13T07:18:56;32.83;;;26.90;;
8861;SDS011;4799;50.996;4.754;2022-12-13T07:21:23;37.03;;;26.57;;
8861;SDS011;4799;50.996;4.754;2022-12-13T07:23:49;29.97;;;25.80;;
8861;SDS011;4799;50.996;4.754;2022-12-13T07:26:15;28.53;;;24.77;;
8861;SDS011;4799;50.996;4.754;2022-12-13T07:28:41;29.23;;;25.30;;
8861;SDS011;4799;50.996;4.754;2022-12-13T07:31:07;33.07;;;26.33;;
8861;SDS011;4799;50.996;4.754;2022-12-13T07:33:34;35.13;;;28.50;;
8861;SDS011;4799;50.996;4.754;2022-12-13T07:36:05;32.10;;;26.00;;
8861;SDS011;4799;50.996;4.754;2022-12-13T07:38:39;31.07;;;26.40;;
8861;SDS011;4799;50.996;4.754;2022-12-13T07:41:05;32.60;;;27.00;;
8861;SDS011;4799;50.996;4.754;2022-12-13T07:43:32;33.73;;;28.63;;
8861;SDS011;4799;50.996;4.754;2022-12-13T07:45:59;31.43;;;27.10;;
8861;SDS011;4799;50.996;4.754;2022-12-13T07:48:26;32.33;;;27.73;;
8861;SDS011;4799;50.996;4.754;2022-12-13T07:50:53;33.13;;;26.93;;
8861;SDS011;4799;50.996;4.754;2022-12-13T07:53:24;31.30;;;26.30;;
8861;SDS011;4799;50.996;4.754;2022-12-13T07:55:50;32.00;;;26.23;;
8861;SDS011;4799;50.996;4.754;2022-12-13T07:58:15;33.57;;;27.77;;
8861;SDS011;4799;50.996;4.754;2022-12-13T08:00:42;29.00;;;25.50;;
8861;SDS011;4799;50.996;4.754;2022-12-13T08:03:09;34.67;;;27.03;;
8861;SDS011;4799;50.996;4.754;2022-12-13T08:05:35;30.37;;;26.40;;
8861;SDS011;4799;50.996;4.754;2022-12-13T08:08:02;31.20;;;27.03;;
8861;SDS011;4799;50.996;4.754;2022-12-13T08:10:29;31.53;;;27.43;;
8861;SDS011;4799;50.996;4.754;2022-12-13T08:12:55;34.97;;;29.20;;
8861;SDS011;4799;50.996;4.754;2022-12-13T08:15:22;34.27;;;27.20;;
8861;SDS011;4799;50.996;4.754;2022-12-13T08:17:48;32.37;;;27.47;;
8861;SDS011;4799;50.996;4.754;2022-12-13T08:20:14;33.27;;;27.80;;
8861;SDS011;4799;50.996;4.754;2022-12-13T08:22:41;36.53;;;29.57;;
8861;SDS011;4799;50.996;4.754;2022-12-13T08:25:07;37.23;;;28.17;;
8861;SDS011;4799;50.996;4.754;2022-12-13T08:27:33;34.50;;;27.13;;
8861;SDS011;4799;50.996;4.754;2022-12-13T08:29:59;35.73;;;29.70;;
8861;SDS011;4799;50.996;4.754;2022-12-13T08:32:25;37.93;;;29.83;;
8861;SDS011;4799;50.996;4.754;2022-12-13T08:34:51;36.07;;;28.90;;
8861;SDS011;4799;50.996;4.754;2022-12-13T08:37:17;35.83;;;29.33;;
8861;SDS011;4799;50.996;4.754;2022-12-13T08:39:42;35.17;;;30.43;;
8861;SDS011;4799;50.996;4.754;2022-12-13T08:42:15;36.87;;;29.03;;
8861;SDS011;4799;50.996;4.754;2022-12-13T08:44:43;35.40;;;29.43;;
8861;SDS011;4799;50.996;4.754;2022-12-13T08:47:13;38.20;;;30.77;;
8861;SDS011;4799;50.996;4.754;2022-12-13T08:49:39;38.60;;;30.50;;
8861;SDS011;4799;50.996;4.754;2022-12-13T08:52:05;37.33;;;30.57;;
8861;SDS011;4799;50.996;4.754;2022-12-13T08:54:32;45.67;;;37.20;;
8861;SDS011;4799;50.996;4.754;2022-12-13T08:56:58;50.77;;;41.43;;
8861;SDS011;4799;50.996;4.754;2022-12-13T08:59:24;47.73;;;38.50;;
8861;SDS011;4799;50.996;4.754;2022-12-13T09:01:50;47.80;;;38.73;;
8861;SDS011;4799;50.996;4.754;2022-12-13T09:04:16;46.90;;;37.57;;
8861;SDS011;4799;50.996;4.754;2022-12-13T09:06:42;42.40;;;35.60;;
8861;SDS011;4799;50.996;4.754;2022-12-13T09:09:08;47.73;;;37.77;;
8861;SDS011;4799;50.996;4.754;2022-12-13T09:11:34;41.97;;;35.47;;
8861;SDS011;4799;50.996;4.754;2022-12-13T09:13:59;49.33;;;38.17;;
8861;SDS011;4799;50.996;4.754;2022-12-13T09:16:25;48.20;;;38.47;;
8861;SDS011;4799;50.996;4.754;2022-12-13T09:18:51;47.73;;;37.23;;
8861;SDS011;4799;50.996;4.754;2022-12-13T09:21:17;46.67;;;38.43;;
8861;SDS011;4799;50.996;4.754;2022-12-13T09:23:43;48.60;;;37.50;;
8861;SDS011;4799;50.996;4.754;2022-12-13T09:26:11;45.90;;;35.87;;
8861;SDS011;4799;50.996;4.754;2022-12-13T09:28:38;46.13;;;36.43;;
8861;SDS011;4799;50.996;4.754;2022-12-13T09:31:14;45.90;;;36.87;;
8861;SDS011;4799;50.996;4.754;2022-12-13T09:33:42;46.73;;;38.03;;
8861;SDS011;4799;50.996;4.754;2022-12-13T09:36:16;47.10;;;38.20;;
8861;SDS011;4799;50.996;4.754;2022-12-13T09:38:44;47.77;;;38.67;;
8861;SDS011;4799;50.996;4.754;2022-12-13T09:43:44;48.37;;;39.07;;
8861;SDS011;4799;50.996;4.754;2022-12-13T09:46:18;49.60;;;39.30;;
8861;SDS011;4799;50.996;4.754;2022-12-13T09:48:50;52.97;;;41.13;;
8861;SDS011;4799;50.996;4.754;2022-12-13T09:51:18;47.10;;;38.37;;
8861;SDS011;4799;50.996;4.754;2022-12-13T09:53:44;47.97;;;37.47;;
8861;SDS011;4799;50.996;4.754;2022-12-13T09:56:14;44.97;;;37.37;;
8861;SDS011;4799;50.996;4.754;2022-12-13T09:58:42;47.90;;;37.33;;
8861;SDS011;4799;50.996;4.754;2022-12-13T10:01:13;45.53;;;36.67;;
8861;SDS011;4799;50.996;4.754;2022-12-13T10:03:41;46.87;;;36.33;;
8861;SDS011;4799;50.996;4.754;2022-12-13T10:06:14;49.83;;;39.77;;
8861;SDS011;4799;50.996;4.754;2022-12-13T10:08:51;48.15;;;40.85;;
8861;SDS011;4799;50.996;4.754;2022-12-13T10:11:23;44.70;;;37.30;;
8861;SDS011;4799;50.996;4.754;2022-12-13T10:18:59;48.00;;;38.23;;
8861;SDS011;4799;50.996;4.754;2022-12-13T10:21:37;45.63;;;37.57;;
8861;SDS011;4799;50.996;4.754;2022-12-13T10:24:28;49.83;;;38.73;;
8861;SDS011;4799;50.996;4.754;2022-12-13T10:26:57;49.80;;;39.37;;
8861;SDS011;4799;50.996;4.754;2022-12-13T10:32:27;49.73;;;38.50;;
8861;SDS011;4799;50.996;4.754;2022-12-13T10:34:54;46.30;;;38.17;;
8861;SDS011;4799;50.996;4.754;2022-12-13T10:37:28;52.40;;;39.87;;
8861;SDS011;4799;50.996;4.754;2022-12-13T10:39:54;49.60;;;39.80;;
8861;SDS011;4799;50.996;4.754;2022-12-13T10:42:21;47.37;;;38.57;;
8861;SDS011;4799;50.996;4.754;2022-12-13T10:44:47;50.90;;;39.37;;
8861;SDS011;4799;50.996;4.754;2022-12-13T10:47:17;46.53;;;37.87;;
8861;SDS011;4799;50.996;4.754;2022-12-13T10:49:50;45.03;;;36.90;;
8861;SDS011;4799;50.996;4.754;2022-12-13T10:54:53;44.13;;;35.40;;
8861;SDS011;4799;50.996;4.754;2022-12-13T10:57:21;43.73;;;35.87;;
8861;SDS011;4799;50.996;4.754;2022-12-13T10:59:47;43.13;;;36.63;;
8861;SDS011;4799;50.996;4.754;2022-12-13T11:02:28;45.47;;;34.80;;
8861;SDS011;4799;50.996;4.754;2022-12-13T11:08:19;43.13;;;35.97;;
8861;SDS011;4799;50.996;4.754;2022-12-13T11:10:57;39.93;;;32.53;;
8861;SDS011;4799;50.996;4.754;2022-12-13T11:15:56;37.57;;;30.73;;
8861;SDS011;4799;50.996;4.754;2022-12-13T11:18:22;36.03;;;30.13;;
8861;SDS011;4799;50.996;4.754;2022-12-13T11:20:59;39.90;;;32.40;;
8861;SDS011;4799;50.996;4.754;2022-12-13T11:23:42;41.17;;;33.40;;
8861;SDS011;4799;50.996;4.754;2022-12-13T11:26:14;41.70;;;33.00;;
8861;SDS011;4799;50.996;4.754;2022-12-13T11:29:06;40.97;;;32.93;;
8861;SDS011;4799;50.996;4.754;2022-12-13T11:37:36;41.43;;;33.10;;
8861;SDS011;4799;50.996;4.754;2022-12-13T11:40:36;40.97;;;32.83;;
8861;SDS011;4799;50.996;4.754;2022-12-13T11:46:16;39.23;;;31.27;;
8861;SDS011;4799;50.996;4.754;2022-12-13T11:48:55;37.97;;;30.73;;
8861;SDS011;4799;50.996;4.754;2022-12-13T11:51:42;39.30;;;31.10;;
8861;SDS011;4799;50.996;4.754;2022-12-13T11:57:56;35.27;;;28.87;;
8861;SDS011;4799;50.996;4.754;2022-12-13T12:00:28;37.77;;;29.70;;
8861;SDS011;4799;50.996;4.754;2022-12-13T12:02:59;34.97;;;27.80;;
8861;SDS011;4799;50.996;4.754;2022-12-13T12:05:37;30.33;;;25.97;;
8861;SDS011;4799;50.996;4.754;2022-12-13T12:08:11;32.30;;;26.10;;
8861;SDS011;4799;50.996;4.754;2022-12-13T12:10:45;34.87;;;28.00;;
8861;SDS011;4799;50.996;4.754;2022-12-13T12:13:23;34.63;;;27.13;;
8861;SDS011;4799;50.996;4.754;2022-12-13T12:18:39;32.53;;;26.87;;
8861;SDS011;4799;50.996;4.754;2022-12-13T12:26:51;31.43;;;25.97;;
8861;SDS011;4799;50.996;4.754;2022-12-13T12:32:40;30.67;;;25.20;;
8861;SDS011;4799;50.996;4.754;2022-12-13T12:37:52;31.40;;;26.03;;
8861;SDS011;4799;50.996;4.754;2022-12-13T12:43:36;31.63;;;26.03;;
8861;SDS011;4799;50.996;4.754;2022-12-13T12:46:13;29.20;;;25.80;;
8861;SDS011;4799;50.996;4.754;2022-12-13T12:55:15;33.00;;;26.50;;
8861;SDS011;4799;50.996;4.754;2022-12-13T12:58:06;28.70;;;24.20;;
8861;SDS011;4799;50.996;4.754;2022-12-13T13:00:50;28.30;;;24.17;;
8861;SDS011;4799;50.996;4.754;2022-12-13T13:03:27;29.50;;;26.00;;
8861;SDS011;4799;50.996;4.754;2022-12-13T13:05:56;28.00;;;24.07;;
8861;SDS011;4799;50.996;4.754;2022-12-13T13:10:58;27.50;;;23.53;;
8861;SDS011;4799;50.996;4.754;2022-12-13T13:13:45;31.50;;;25.97;;
8861;SDS011;4799;50.996;4.754;2022-12-13T13:24:21;28.40;;;24.73;;
8861;SDS011;4799;50.996;4.754;2022-12-13T13:26:55;30.33;;;25.83;;
8861;SDS011;4799;50.996;4.754;2022-12-13T13:29:42;34.70;;;29.13;;
8861;SDS011;4799;50.996;4.754;2022-12-13T13:34:43;39.93;;;33.30;;
8861;SDS011;4799;50.996;4.754;2022-12-13T13:42:20;41.47;;;34.33;;
8861;SDS011;4799;50.996;4.754;2022-12-13T13:45:00;43.80;;;35.17;;
8861;SDS011;4799;50.996;4.754;2022-12-13T13:47:42;46.50;;;37.07;;
8861;SDS011;4799;50.996;4.754;2022-12-13T13:50:37;48.13;;;38.93;;
8861;SDS011;4799;50.996;4.754;2022-12-13T13:53:33;49.87;;;40.17;;
8861;SDS011;4799;50.996;4.754;2022-12-13T13:56:33;51.77;;;41.10;;
8861;SDS011;4799;50.996;4.754;2022-12-13T14:08:25;49.63;;;40.40;;
8861;SDS011;4799;50.996;4.754;2022-12-13T14:19:51;46.30;;;38.27;;
8861;SDS011;4799;50.996;4.754;2022-12-13T14:22:34;47.13;;;38.37;;
8861;SDS011;4799;50.996;4.754;2022-12-13T14:28:07;46.67;;;38.07;;
8861;SDS011;4799;50.996;4.754;2022-12-13T14:30:44;51.60;;;39.93;;
8861;SDS011;4799;50.996;4.754;2022-12-13T14:33:20;46.40;;;37.30;;
8861;SDS011;4799;50.996;4.754;2022-12-13T14:35:52;47.53;;;37.97;;
8861;SDS011;4799;50.996;4.754;2022-12-13T14:38:20;45.10;;;37.70;;
8861;SDS011;4799;50.996;4.754;2022-12-13T14:40:58;45.10;;;37.03;;
8861;SDS011;4799;50.996;4.754;2022-12-13T14:45:59;46.20;;;37.40;;
8861;SDS011;4799;50.996;4.754;2022-12-13T14:48:31;45.70;;;37.20;;
8861;SDS011;4799;50.996;4.754;2022-12-13T14:51:00;43.80;;;36.87;;
8861;SDS011;4799;50.996;4.754;2022-12-13T14:53:28;45.40;;;35.63;;
8861;SDS011;4799;50.996;4.754;2022-12-13T14:58:35;45.43;;;37.90;;
8861;SDS011;4799;50.996;4.754;2022-12-13T15:01:05;45.90;;;36.63;;
8861;SDS011;4799;50.996;4.754;2022-12-13T15:03:48;45.30;;;38.90;;
8861;SDS011;4799;50.996;4.754;2022-12-13T15:06:15;42.27;;;35.73;;
8861;SDS011;4799;50.996;4.754;2022-12-13T15:08:43;44.40;;;36.03;;
8861;SDS011;4799;50.996;4.754;2022-12-13T15:11:10;41.70;;;35.50;;
8861;SDS011;4799;50.996;4.754;2022-12-13T15:13:43;43.60;;;35.00;;
8861;SDS011;4799;50.996;4.754;2022-12-13T15:16:17;43.37;;;35.97;;
8861;SDS011;4799;50.996;4.754;2022-12-13T15:18:46;40.60;;;33.47;;
8861;SDS011;4799;50.996;4.754;2022-12-13T15:21:22;40.17;;;33.90;;
8861;SDS011;4799;50.996;4.754;2022-12-13T15:23:50;44.87;;;35.70;;
8861;SDS011;4799;50.996;4.754;2022-12-13T15:26:20;47.27;;;37.97;;
8861;SDS011;4799;50.996;4.754;2022-12-13T15:28:49;47.03;;;38.63;;
8861;SDS011;4799;50.996;4.754;2022-12-13T15:31:18;49.23;;;36.97;;
8861;SDS011;4799;50.996;4.754;2022-12-13T15:33:44;44.57;;;37.20;;
8861;SDS011;4799;50.996;4.754;2022-12-13T15:41:20;48.83;;;39.13;;
8861;SDS011;4799;50.996;4.754;2022-12-13T15:43:59;51.07;;;39.70;;
8861;SDS011;4799;50.996;4.754;2022-12-13T15:46:28;47.00;;;38.30;;
8861;SDS011;4799;50.996;4.754;2022-12-13T15:48:56;53.70;;;42.87;;
8861;SDS011;4799;50.996;4.754;2022-12-13T15:51:26;53.03;;;41.33;;
8861;SDS011;4799;50.996;4.754;2022-12-13T15:56:33;47.90;;;38.80;;
8861;SDS011;4799;50.996;4.754;2022-12-13T15:59:01;47.00;;;39.40;;
8861;SDS011;4799;50.996;4.754;2022-12-13T16:01:35;52.17;;;41.93;;
8861;SDS011;4799;50.996;4.754;2022-12-13T16:04:03;49.27;;;37.87;;
8861;SDS011;4799;50.996;4.754;2022-12-13T16:06:31;48.20;;;39.67;;
8861;SDS011;4799;50.996;4.754;2022-12-13T16:09:01;46.40;;;38.53;;
8861;SDS011;4799;50.996;4.754;2022-12-13T16:11:31;49.17;;;37.93;;
8861;SDS011;4799;50.996;4.754;2022-12-13T16:16:50;47.63;;;38.17;;
8861;SDS011;4799;50.996;4.754;2022-12-13T16:19:17;47.07;;;37.33;;
8861;SDS011;4799;50.996;4.754;2022-12-13T16:21:44;45.20;;;35.30;;
8861;SDS011;4799;50.996;4.754;2022-12-13T16:24:10;44.87;;;34.87;;
8861;SDS011;4799;50.996;4.754;2022-12-13T16:26:35;42.93;;;35.50;;
8861;SDS011;4799;50.996;4.754;2022-12-13T16:29:04;42.40;;;34.50;;
8861;SDS011;4799;50.996;4.754;2022-12-13T16:31:34;43.53;;;33.67;;
8861;SDS011;4799;50.996;4.754;2022-12-13T16:34:00;43.47;;;35.07;;
8861;SDS011;4799;50.996;4.754;2022-12-13T16:36:27;41.47;;;33.57;;
8861;SDS011;4799;50.996;4.754;2022-12-13T16:38:52;39.60;;;33.20;;
8861;SDS011;4799;50.996;4.754;2022-12-13T16:41:18;40.10;;;33.17;;
8861;SDS011;4799;50.996;4.754;2022-12-13T16:43:59;40.47;;;32.90;;
8861;SDS011;4799;50.996;4.754;2022-12-13T16:46:27;40.20;;;32.53;;
8861;SDS011;4799;50.996;4.754;2022-12-13T16:48:53;36.90;;;30.33;;
8861;SDS011;4799;50.996;4.754;2022-12-13T16:51:20;37.53;;;29.83;;
8861;SDS011;4799;50.996;4.754;2022-12-13T16:53:46;36.33;;;30.23;;
8861;SDS011;4799;50.996;4.754;2022-12-13T16:56:12;35.03;;;29.37;;
8861;SDS011;4799;50.996;4.754;2022-12-13T16:58:40;35.70;;;30.17;;
8861;SDS011;4799;50.996;4.754;2022-12-13T17:01:10;39.27;;;31.57;;
8861;SDS011;4799;50.996;4.754;2022-12-13T17:03:37;35.60;;;29.63;;
8861;SDS011;4799;50.996;4.754;2022-12-13T17:06:04;37.37;;;31.13;;
8861;SDS011;4799;50.996;4.754;2022-12-13T17:08:30;33.13;;;28.40;;
8861;SDS011;4799;50.996;4.754;2022-12-13T17:10:57;35.80;;;29.53;;
8861;SDS011;4799;50.996;4.754;2022-12-13T17:13:24;35.93;;;28.97;;
8861;SDS011;4799;50.996;4.754;2022-12-13T17:15:50;34.13;;;28.50;;
8861;SDS011;4799;50.996;4.754;2022-12-13T17:18:16;36.67;;;29.50;;
8861;SDS011;4799;50.996;4.754;2022-12-13T17:20:43;35.30;;;28.80;;